createdAt,value
2018-08-18T00:00:25.152Z,99.90
2018-08-18T00:02:55.270Z,99.90
2018-08-18T00:05:24.601Z,99.90
2018-08-18T00:07:53.850Z,99.90
2018-08-18T00:10:23.508Z,99.90
2018-08-18T00:12:52.732Z,99.90
2018-08-18T00:15:21.889Z,99.90
2018-08-18T00:17:51.021Z,99.90
2018-08-18T00:20:23.630Z,99.90
2018-08-18T00:22:52.890Z,99.90
2018-08-18T00:25:21.905Z,99.90
2018-08-18T00:27:52.040Z,99.90
2018-08-18T00:30:28.200Z,99.90
2018-08-18T00:32:57.293Z,99.90
2018-08-18T00:35:26.354Z,99.90
2018-08-18T00:37:55.493Z,99.90
2018-08-18T00:40:24.597Z,99.90
2018-08-18T00:42:53.765Z,99.90
2018-08-18T00:45:22.924Z,99.90
2018-08-18T00:47:51.866Z,99.90
2018-08-18T00:50:35.203Z,99.90
2018-08-18T00:53:05.267Z,99.90
2018-08-18T00:55:35.139Z,99.90
2018-08-18T00:58:04.686Z,99.90
2018-08-18T01:00:34.103Z,99.90
2018-08-18T01:03:03.234Z,99.90
2018-08-18T01:05:32.394Z,99.90
2018-08-18T01:08:01.376Z,99.90
2018-08-18T01:10:30.319Z,99.90
2018-08-18T01:12:59.520Z,99.90
2018-08-18T01:15:28.914Z,99.90
2018-08-18T01:17:57.941Z,99.90
2018-08-18T01:20:26.865Z,99.90
2018-08-18T01:23:00.535Z,99.90
2018-08-18T01:25:29.629Z,99.90
2018-08-18T01:27:59.796Z,99.90
2018-08-18T01:30:28.933Z,99.90
2018-08-18T01:32:58.070Z,99.90
2018-08-18T01:35:27.083Z,99.90
2018-08-18T01:37:56.185Z,99.90
2018-08-18T01:40:25.301Z,99.90
2018-08-18T01:42:54.544Z,99.90
2018-08-18T01:45:23.614Z,99.90
2018-08-18T01:47:52.629Z,99.90
2018-08-18T01:50:21.669Z,99.90
2018-08-18T01:52:51.037Z,99.90
2018-08-18T01:55:20.047Z,99.90
2018-08-18T01:57:49.042Z,99.90
2018-08-18T02:00:23.165Z,99.90
2018-08-18T02:02:52.164Z,99.90
2018-08-18T02:05:21.184Z,99.90
2018-08-18T02:07:50.129Z,99.90
2018-08-18T02:10:19.080Z,99.90
2018-08-18T02:13:00.494Z,99.90
2018-08-18T02:15:29.798Z,99.90
2018-08-18T02:17:58.775Z,99.90
2018-08-18T02:20:27.795Z,99.90
2018-08-18T02:22:56.981Z,99.90
2018-08-18T02:25:26.021Z,99.90
2018-08-18T02:27:55.290Z,99.90
2018-08-18T02:30:24.564Z,99.90
2018-08-18T02:32:53.655Z,99.90
2018-08-18T02:35:22.939Z,99.90
2018-08-18T02:37:52.029Z,99.90
2018-08-18T02:40:21.101Z,99.90
2018-08-18T02:42:50.215Z,99.90
2018-08-18T02:45:19.181Z,99.90
2018-08-18T02:47:49.171Z,99.90
2018-08-18T02:50:18.181Z,99.90
2018-08-18T02:52:47.173Z,99.90
2018-08-18T02:55:16.140Z,99.90
2018-08-18T02:57:45.193Z,99.90
2018-08-18T03:00:23.617Z,99.90
2018-08-18T03:02:52.603Z,99.90
2018-08-18T03:05:21.542Z,99.90
2018-08-18T03:07:51.638Z,99.90
2018-08-18T03:10:23.376Z,99.90
2018-08-18T03:12:57.349Z,99.90
2018-08-18T03:16:11.470Z,99.90
2018-08-18T03:18:44.953Z,99.90
2018-08-18T03:21:14.059Z,99.90
2018-08-18T03:23:54.336Z,99.90
2018-08-18T03:26:28.967Z,99.90
2018-08-18T03:28:57.912Z,99.90
2018-08-18T03:31:30.933Z,99.90
2018-08-18T03:34:00.011Z,99.90
2018-08-18T03:36:30.903Z,99.90
2018-08-18T03:39:00.249Z,99.90
2018-08-18T03:41:30.029Z,99.90
2018-08-18T03:43:59.173Z,99.90
2018-08-18T03:46:28.170Z,99.90
2018-08-18T03:48:57.252Z,99.90
2018-08-18T03:51:31.831Z,99.90
2018-08-18T03:54:01.657Z,99.90
2018-08-18T03:56:30.743Z,99.90
2018-08-18T03:59:00.315Z,99.90
2018-08-18T04:01:48.670Z,99.90
2018-08-18T04:04:18.649Z,99.90
2018-08-18T04:06:49.064Z,99.90
2018-08-18T04:09:24.643Z,99.90
2018-08-18T04:11:53.917Z,99.90
2018-08-18T04:14:44.101Z,99.90
2018-08-18T04:17:24.968Z,99.90
2018-08-18T04:19:53.960Z,99.90
2018-08-18T04:22:24.608Z,99.90
2018-08-18T04:24:56.039Z,99.90
2018-08-18T04:27:38.269Z,99.90
2018-08-18T04:30:10.339Z,99.90
2018-08-18T04:32:53.296Z,99.90
2018-08-18T04:35:24.410Z,99.90
2018-08-18T04:37:54.338Z,99.90
2018-08-18T04:40:23.750Z,99.90
2018-08-18T04:42:52.838Z,99.90
2018-08-18T04:45:22.467Z,99.90
2018-08-18T04:47:51.580Z,99.90
2018-08-18T04:50:21.233Z,99.90
2018-08-18T04:52:51.362Z,99.90
2018-08-18T04:55:20.784Z,99.90
2018-08-18T04:57:49.795Z,99.90
2018-08-18T05:00:18.758Z,99.90
2018-08-18T05:02:56.759Z,99.90
2018-08-18T05:05:29.676Z,99.90
2018-08-18T05:08:01.113Z,99.90
2018-08-18T05:10:30.341Z,99.90
2018-08-18T05:12:59.296Z,99.90
2018-08-18T05:15:28.483Z,99.90
2018-08-18T05:17:57.438Z,99.90
2018-08-18T05:20:27.276Z,99.90
2018-08-18T05:23:10.812Z,99.90
2018-08-18T05:25:41.155Z,99.90
2018-08-18T05:28:10.281Z,99.90
2018-08-18T05:30:39.293Z,99.90
2018-08-18T05:33:08.668Z,99.90
2018-08-18T05:35:37.883Z,99.90
2018-08-18T05:38:07.009Z,99.90
2018-08-18T05:40:35.977Z,99.90
2018-08-18T05:43:04.964Z,99.90
2018-08-18T05:45:34.737Z,99.90
2018-08-18T05:48:04.886Z,99.90
2018-08-18T05:50:33.848Z,99.90
2018-08-18T05:53:21.064Z,99.90
2018-08-18T05:55:50.545Z,99.90
2018-08-18T05:58:19.560Z,99.90
2018-08-18T06:00:49.814Z,99.90
2018-08-18T06:03:20.505Z,99.90
2018-08-18T06:05:49.585Z,99.90
2018-08-18T06:08:18.393Z,99.90
2018-08-18T06:10:47.749Z,99.90
2018-08-18T06:13:22.692Z,99.90
2018-08-18T06:16:08.381Z,99.90
2018-08-18T06:18:38.686Z,99.90
2018-08-18T06:21:08.136Z,99.90
2018-08-18T06:23:38.356Z,99.90
2018-08-18T06:26:08.088Z,99.90
2018-08-18T06:28:37.194Z,99.90
2018-08-18T06:31:06.273Z,99.90
2018-08-18T06:33:36.722Z,99.90
2018-08-18T06:36:05.681Z,99.90
2018-08-18T06:38:34.841Z,99.90
2018-08-18T06:41:04.046Z,99.90
2018-08-18T06:43:34.041Z,99.90
2018-08-18T06:46:03.502Z,99.90
2018-08-18T06:48:34.183Z,99.90
2018-08-18T06:51:03.300Z,99.90
2018-08-18T06:53:37.882Z,99.90
2018-08-18T06:56:07.416Z,99.90
2018-08-18T06:58:36.736Z,99.90
2018-08-18T07:01:06.490Z,99.90
2018-08-18T07:03:38.496Z,99.90
2018-08-18T07:06:07.994Z,99.90
2018-08-18T07:08:42.429Z,99.90
2018-08-18T07:11:11.612Z,99.90
2018-08-18T07:13:41.391Z,99.90
2018-08-18T07:16:10.585Z,99.90
2018-08-18T07:18:39.686Z,99.90
2018-08-18T07:21:08.696Z,99.90
2018-08-18T07:23:37.691Z,99.00
2018-08-18T07:26:07.187Z,99.30
2018-08-18T07:28:36.329Z,98.20
2018-08-18T07:31:05.353Z,99.30
2018-08-18T07:33:34.465Z,98.80
2018-08-18T07:36:03.537Z,98.80
2018-08-18T07:38:32.730Z,97.20
2018-08-18T07:41:01.888Z,97.30
2018-08-18T07:43:33.121Z,97.10
2018-08-18T07:46:04.566Z,96.50
2018-08-18T07:48:33.623Z,97.80
2018-08-18T07:51:02.766Z,97.00
2018-08-18T07:53:31.911Z,96.40
2018-08-18T07:56:00.926Z,97.50
2018-08-18T07:58:30.046Z,96.30
2018-08-18T08:00:59.914Z,96.20
2018-08-18T08:03:29.033Z,96.10
2018-08-18T08:05:58.054Z,95.90
2018-08-18T08:08:33.765Z,96.00
2018-08-18T08:11:06.948Z,94.90
2018-08-18T08:13:36.045Z,94.30
2018-08-18T08:16:05.149Z,94.70
2018-08-18T08:18:34.224Z,94.10
2018-08-18T08:21:03.373Z,95.40
2018-08-18T08:23:32.540Z,95.00
2018-08-18T08:26:01.492Z,94.60
2018-08-18T08:28:30.536Z,93.30
2018-08-18T08:30:59.900Z,93.10
2018-08-18T08:33:36.357Z,93.10
2018-08-18T08:36:08.555Z,93.00
2018-08-18T08:38:49.978Z,91.20
2018-08-18T08:41:19.035Z,91.90
2018-08-18T08:43:48.245Z,90.70
2018-08-18T08:46:17.386Z,90.50
2018-08-18T08:48:53.306Z,91.80
2018-08-18T08:51:22.647Z,92.10
2018-08-18T08:53:52.687Z,92.30
2018-08-18T08:56:38.691Z,91.80
2018-08-18T08:59:07.932Z,91.70
2018-08-18T09:01:36.939Z,91.80
2018-08-18T09:04:05.963Z,91.40
2018-08-18T09:06:35.692Z,90.50
2018-08-18T09:09:07.246Z,91.20
2018-08-18T09:11:36.505Z,90.50
2018-08-18T09:14:07.349Z,90.20
2018-08-18T09:16:36.309Z,89.90
2018-08-18T09:19:06.349Z,88.50
2018-08-18T09:21:46.269Z,87.30
2018-08-18T09:24:16.575Z,85.70
2018-08-18T09:26:51.376Z,88.00
2018-08-18T09:29:22.039Z,86.50
2018-08-18T09:31:52.109Z,84.40
2018-08-18T09:34:21.921Z,85.30
2018-08-18T09:36:51.863Z,84.50
2018-08-18T09:39:28.172Z,84.90
2018-08-18T09:41:57.237Z,85.30
2018-08-18T09:44:31.709Z,83.70
2018-08-18T09:47:01.294Z,81.10
2018-08-18T09:49:31.353Z,82.00
2018-08-18T09:52:01.865Z,82.70
2018-08-18T09:54:32.001Z,80.80
2018-08-18T09:57:01.066Z,80.30
2018-08-18T09:59:30.566Z,81.30
2018-08-18T10:01:59.635Z,80.50
2018-08-18T10:04:28.834Z,80.40
2018-08-18T10:06:57.977Z,80.00
2018-08-18T10:09:26.961Z,81.80
2018-08-18T10:11:55.937Z,78.40
2018-08-18T10:14:25.023Z,79.70
2018-08-18T10:16:54.133Z,79.60
2018-08-18T10:19:23.132Z,78.40
2018-08-18T10:21:52.190Z,75.00
2018-08-18T10:24:21.273Z,73.40
2018-08-18T10:26:55.769Z,75.50
2018-08-18T10:29:25.539Z,75.50
2018-08-18T10:31:55.525Z,76.20
2018-08-18T10:34:26.596Z,74.20
2018-08-18T10:37:04.263Z,72.30
2018-08-18T10:39:33.437Z,69.90
2018-08-18T10:42:05.993Z,73.20
2018-08-18T10:44:35.117Z,73.70
2018-08-18T10:47:19.286Z,72.40
2018-08-18T10:49:59.923Z,70.40
2018-08-18T10:52:41.165Z,74.20
2018-08-18T10:55:11.333Z,71.10
2018-08-18T10:57:52.703Z,68.20
2018-08-18T11:00:23.281Z,70.00
2018-08-18T11:02:53.555Z,68.70
2018-08-18T11:05:23.378Z,69.30
2018-08-18T11:07:58.725Z,69.30
2018-08-18T11:10:29.675Z,67.20
2018-08-18T11:12:58.785Z,67.20
2018-08-18T11:15:28.042Z,66.50
2018-08-18T11:17:57.536Z,65.20
2018-08-18T11:20:28.151Z,67.10
2018-08-18T11:23:13.984Z,64.80
2018-08-18T11:25:45.572Z,65.80
2018-08-18T11:28:15.015Z,65.30
2018-08-18T11:30:44.111Z,65.90
2018-08-18T11:33:29.744Z,66.00
2018-08-18T11:35:58.731Z,66.10
2018-08-18T11:38:27.894Z,66.20
2018-08-18T11:40:57.073Z,65.40
2018-08-18T11:43:26.311Z,65.00
2018-08-18T11:45:55.284Z,67.20
2018-08-18T11:48:24.879Z,65.10
2018-08-18T11:50:54.977Z,65.50
2018-08-18T11:53:24.106Z,64.50
2018-08-18T11:55:53.241Z,65.30
2018-08-18T11:58:23.410Z,63.40
2018-08-18T12:00:55.609Z,63.10
2018-08-18T12:03:27.061Z,64.10
2018-08-18T12:06:01.673Z,65.60
2018-08-18T12:08:35.946Z,62.90
2018-08-18T12:11:07.456Z,62.10
2018-08-18T12:24:05.568Z,63.70
2018-08-18T12:26:34.540Z,63.30
2018-08-18T12:29:03.531Z,66.00
2018-08-18T12:31:32.540Z,61.70
2018-08-18T12:34:01.434Z,60.50
2018-08-18T12:36:30.402Z,59.90
2018-08-18T12:38:59.261Z,61.20
2018-08-18T12:41:28.107Z,61.70
2018-08-18T12:43:58.140Z,61.60
2018-08-18T12:46:35.375Z,61.50
2018-08-18T12:49:05.668Z,59.70
2018-08-18T12:51:34.732Z,62.50
2018-08-18T12:54:03.720Z,59.70
2018-08-18T12:56:32.895Z,60.30
2018-08-18T12:59:01.808Z,60.30
2018-08-18T13:01:41.972Z,60.80
2018-08-18T13:04:15.620Z,59.60
2018-08-18T13:06:48.823Z,59.70
2018-08-18T13:09:26.252Z,59.40
2018-08-18T13:11:56.573Z,59.50
2018-08-18T13:14:26.966Z,59.50
2018-08-18T13:16:55.916Z,58.60
2018-08-18T13:19:27.625Z,59.70
2018-08-18T13:21:56.524Z,60.00
2018-08-18T13:24:25.574Z,59.90
2018-08-18T13:26:54.540Z,58.70
2018-08-18T13:29:23.552Z,59.40
2018-08-18T13:31:52.496Z,58.80
2018-08-18T13:34:21.428Z,57.60
2018-08-18T13:36:50.388Z,57.20
2018-08-18T13:39:20.611Z,57.40
2018-08-18T13:41:50.320Z,59.00
2018-08-18T13:44:37.192Z,59.20
2018-08-18T13:47:06.159Z,59.00
2018-08-18T13:49:35.248Z,58.70
2018-08-18T13:52:04.264Z,58.40
2018-08-18T13:54:33.836Z,59.40
2018-08-18T13:57:02.829Z,58.00
2018-08-18T13:59:39.785Z,58.10
2018-08-18T14:02:09.524Z,60.60
2018-08-18T14:04:41.199Z,58.90
2018-08-18T14:07:10.442Z,59.50
2018-08-18T14:09:42.028Z,60.20
2018-08-18T14:12:16.321Z,58.70
2018-08-18T14:14:45.929Z,58.40
2018-08-18T14:17:15.371Z,61.20
2018-08-18T14:19:44.508Z,60.80
2018-08-18T14:22:13.764Z,59.80
2018-08-18T14:24:42.648Z,59.80
2018-08-18T14:27:13.384Z,59.50
2018-08-18T14:29:42.444Z,60.60
2018-08-18T14:32:16.712Z,61.70
2018-08-18T14:34:56.368Z,63.00
2018-08-18T14:37:25.336Z,61.60
2018-08-18T14:39:54.344Z,62.40
2018-08-18T14:42:23.303Z,61.60
2018-08-18T14:44:55.014Z,61.10
2018-08-18T14:47:23.941Z,63.60
2018-08-18T14:50:26.216Z,64.10
2018-08-18T14:52:55.118Z,65.20
2018-08-18T14:55:24.005Z,65.70
2018-08-18T14:57:59.476Z,67.40
2018-08-18T15:00:28.582Z,66.80
2018-08-18T15:02:57.592Z,66.70
2018-08-18T15:05:26.844Z,66.60
2018-08-18T15:07:57.503Z,65.70
2018-08-18T15:10:41.209Z,65.30
2018-08-18T15:13:10.844Z,67.60
2018-08-18T15:15:39.921Z,67.50
2018-08-18T15:18:11.932Z,66.40
2018-08-18T15:20:41.528Z,67.50
2018-08-18T15:23:11.245Z,68.80
2018-08-18T15:25:40.931Z,69.70
2018-08-18T15:28:11.021Z,69.60
2018-08-18T15:30:41.153Z,73.00
2018-08-18T15:33:11.218Z,71.80
2018-08-18T15:35:41.084Z,71.40
2018-08-18T15:38:10.934Z,69.70
2018-08-18T15:40:40.029Z,71.90
2018-08-18T15:43:08.993Z,72.80
2018-08-18T15:45:57.554Z,73.30
2018-08-18T15:48:26.480Z,74.00
2018-08-18T15:50:55.417Z,74.90
2018-08-18T15:53:51.483Z,75.70
2018-08-18T15:56:21.222Z,74.70
2018-08-18T15:58:50.721Z,76.60
2018-08-18T16:01:22.209Z,76.70
2018-08-18T16:03:51.624Z,76.50
2018-08-18T16:06:20.539Z,76.10
2018-08-18T16:08:50.003Z,76.50
2018-08-18T16:11:18.916Z,78.30
2018-08-18T16:13:47.998Z,77.50
2018-08-18T16:16:16.888Z,77.80
2018-08-18T16:18:46.123Z,78.10
2018-08-18T16:21:20.350Z,78.60
2018-08-18T16:23:49.347Z,79.40
2018-08-18T16:26:18.383Z,79.10
2018-08-18T16:28:47.316Z,80.30
2018-08-18T16:31:16.260Z,80.00
2018-08-18T16:33:45.219Z,80.50
2018-08-18T16:36:14.248Z,81.40
2018-08-18T16:38:43.309Z,80.00
2018-08-18T16:41:12.255Z,81.10
2018-08-18T16:43:41.195Z,81.80
2018-08-18T16:46:24.265Z,82.10
2018-08-18T16:48:53.648Z,81.30
2018-08-18T16:51:22.785Z,83.60
2018-08-18T16:53:51.695Z,83.20
2018-08-18T16:56:22.513Z,84.60
2018-08-18T16:58:52.666Z,83.80
2018-08-18T17:01:22.125Z,84.60
2018-08-18T17:03:51.118Z,84.60
2018-08-18T17:06:20.102Z,84.90
2018-08-18T17:08:49.032Z,85.50
2018-08-18T17:11:17.932Z,86.40
2018-08-18T17:13:46.850Z,85.80
2018-08-18T17:16:15.772Z,85.50
2018-08-18T17:18:44.887Z,87.30
2018-08-18T17:21:14.464Z,86.80
2018-08-18T17:23:43.435Z,87.20
2018-08-18T17:26:12.256Z,86.60
2018-08-18T17:28:41.159Z,88.00
2018-08-18T17:31:10.188Z,88.10
2018-08-18T17:33:39.150Z,88.20
2018-08-18T17:36:08.151Z,88.80
2018-08-18T17:38:37.040Z,88.90
2018-08-18T17:41:05.949Z,90.20
2018-08-18T17:43:34.916Z,90.20
2018-08-18T17:46:04.627Z,89.60
2018-08-18T17:48:38.917Z,89.80
2018-08-18T17:51:07.815Z,90.60
2018-08-18T17:53:36.704Z,90.50
2018-08-18T17:56:05.742Z,90.30
2018-08-18T17:58:34.704Z,90.80
2018-08-18T18:01:05.885Z,90.70
2018-08-18T18:03:34.781Z,91.30
2018-08-18T18:06:03.827Z,91.50
2018-08-18T18:08:32.617Z,91.70
2018-08-18T18:11:01.517Z,91.90
2018-08-18T18:13:30.569Z,91.80
2018-08-18T18:15:59.481Z,92.20
2018-08-18T18:18:34.580Z,92.70
2018-08-18T18:21:03.508Z,93.00
2018-08-18T18:23:32.421Z,93.50
2018-08-18T18:26:01.733Z,93.60
2018-08-18T18:28:30.716Z,93.40
2018-08-18T18:30:59.740Z,94.30
2018-08-18T18:33:28.783Z,94.50
2018-08-18T18:35:57.648Z,94.20
2018-08-18T18:38:26.552Z,94.80
2018-08-18T18:40:55.521Z,94.70
2018-08-18T18:43:24.479Z,95.20
2018-08-18T18:45:53.559Z,95.00
2018-08-18T18:48:22.459Z,95.20
2018-08-18T18:50:51.400Z,95.50
2018-08-18T18:53:20.353Z,95.80
2018-08-18T18:55:53.584Z,96.10
2018-08-18T18:58:22.503Z,96.30
2018-08-18T19:00:55.952Z,96.20
2018-08-18T19:03:24.972Z,96.70
2018-08-18T19:05:53.852Z,96.90
2018-08-18T19:08:22.723Z,97.40
2018-08-18T19:10:51.651Z,97.10
2018-08-18T19:13:20.548Z,97.40
2018-08-18T19:15:49.488Z,97.30
2018-08-18T19:18:18.412Z,97.60
2018-08-18T19:20:47.347Z,97.70
2018-08-18T19:23:17.471Z,98.30
2018-08-18T19:25:47.776Z,98.20
2018-08-18T19:28:18.105Z,98.80
2018-08-18T19:30:46.999Z,99.00
2018-08-18T19:33:16.440Z,99.20
2018-08-18T19:35:46.508Z,99.70
2018-08-18T19:38:16.021Z,99.90
2018-08-18T19:40:46.249Z,99.90
2018-08-18T19:43:29.893Z,99.90
2018-08-18T19:45:58.821Z,99.90
2018-08-18T19:48:28.187Z,99.90
2018-08-18T19:51:03.841Z,99.90
2018-08-18T19:53:34.963Z,99.90
2018-08-18T19:56:08.412Z,99.90
2018-08-18T19:58:37.276Z,99.90
2018-08-18T20:01:06.500Z,99.90
2018-08-18T20:03:35.380Z,99.90
2018-08-18T20:06:08.519Z,99.90
2018-08-18T20:08:37.444Z,99.90
2018-08-18T20:11:06.394Z,99.90
2018-08-18T20:13:35.282Z,99.90
2018-08-18T20:16:04.483Z,99.90
2018-08-18T20:18:33.833Z,99.90
2018-08-18T20:21:02.691Z,99.90
2018-08-18T20:23:31.720Z,99.90
2018-08-18T20:26:01.375Z,99.90
2018-08-18T20:28:30.319Z,99.90
2018-08-18T20:30:59.244Z,99.90
2018-08-18T20:33:28.224Z,99.90
2018-08-18T20:35:57.243Z,99.90
2018-08-18T20:38:30.428Z,99.90
2018-08-18T20:40:59.432Z,99.90
2018-08-18T20:43:28.420Z,99.90
2018-08-18T20:45:57.414Z,99.90
2018-08-18T20:48:26.307Z,99.90
2018-08-18T20:50:55.188Z,99.90
2018-08-18T20:53:24.364Z,99.90
2018-08-18T20:55:56.167Z,99.90
2018-08-18T20:58:25.512Z,99.90
2018-08-18T21:00:54.424Z,99.90
2018-08-18T21:03:31.501Z,99.90
2018-08-18T21:06:00.492Z,99.90
2018-08-18T21:08:29.701Z,99.90
2018-08-18T21:10:58.743Z,99.90
2018-08-18T21:13:27.617Z,99.90
2018-08-18T21:15:56.453Z,99.90
2018-08-18T21:18:25.422Z,99.90
2018-08-18T21:20:54.333Z,99.90
2018-08-18T21:23:24.445Z,99.90
2018-08-18T21:25:53.920Z,99.90
2018-08-18T21:28:25.322Z,99.90
2018-08-18T21:30:54.227Z,99.90
2018-08-18T21:33:25.239Z,99.90
2018-08-18T21:35:54.423Z,99.90
2018-08-18T21:38:23.406Z,99.90
2018-08-18T21:40:52.304Z,99.90
2018-08-18T21:43:30.673Z,99.90
2018-08-18T21:45:59.813Z,99.90
2018-08-18T21:48:40.709Z,99.90
2018-08-18T21:51:09.660Z,99.90
2018-08-18T21:53:38.543Z,99.90
2018-08-18T21:56:07.444Z,99.90
2018-08-18T21:58:36.349Z,99.90
2018-08-18T22:01:23.035Z,99.90
2018-08-18T22:03:54.500Z,99.90
2018-08-18T22:06:23.523Z,99.90
2018-08-18T22:08:58.333Z,99.90
2018-08-18T22:11:27.253Z,99.90
2018-08-18T22:13:56.449Z,99.90
2018-08-18T22:16:25.369Z,99.90
2018-08-18T22:19:03.708Z,99.90
2018-08-18T22:21:32.999Z,99.90
2018-08-18T22:24:02.651Z,99.90
2018-08-18T22:26:31.576Z,99.90
2018-08-18T22:29:02.896Z,99.90
2018-08-18T22:31:32.395Z,99.90
2018-08-18T22:34:02.317Z,99.90
2018-08-18T22:36:32.383Z,99.90
2018-08-18T22:39:01.757Z,99.90
2018-08-18T22:41:30.772Z,99.90
2018-08-18T22:43:59.771Z,99.90
2018-08-18T22:46:29.815Z,99.90
2018-08-18T22:48:58.959Z,99.90
2018-08-18T22:51:27.940Z,99.90
2018-08-18T22:53:57.384Z,99.90
2018-08-18T22:56:31.949Z,99.90
2018-08-18T22:59:03.877Z,99.90
2018-08-18T23:01:33.945Z,99.90
2018-08-18T23:04:03.768Z,99.90
2018-08-18T23:06:34.753Z,99.90
2018-08-18T23:09:05.629Z,99.90
2018-08-18T23:11:34.532Z,99.90
2018-08-18T23:14:03.488Z,99.90
2018-08-18T23:16:32.464Z,99.90
2018-08-18T23:19:01.418Z,99.90
2018-08-18T23:21:30.960Z,99.90
2018-08-18T23:24:01.867Z,99.90
2018-08-18T23:26:30.794Z,99.90
2018-08-18T23:28:59.691Z,99.90
2018-08-18T23:31:28.648Z,99.90
2018-08-18T23:33:57.622Z,99.90
2018-08-18T23:36:26.552Z,99.90
2018-08-18T23:38:57.532Z,99.90
2018-08-18T23:41:26.634Z,99.90
2018-08-18T23:43:55.832Z,99.90
2018-08-18T23:46:25.083Z,99.90
2018-08-18T23:48:54.341Z,99.90
2018-08-18T23:51:28.519Z,99.90
2018-08-18T23:53:57.708Z,99.90
2018-08-18T23:56:28.639Z,99.90
2018-08-18T23:58:58.267Z,99.90
